createdAt,value
2019-01-06T00:03:02.792Z,56217.72
2019-01-06T00:06:02.257Z,56228.01
2019-01-06T00:09:08.025Z,56277.36
2019-01-06T00:12:16.343Z,56247.54
2019-01-06T00:15:19.747Z,56248.57
2019-01-06T00:18:27.775Z,56240.34
2019-01-06T00:21:36.379Z,56274.28
2019-01-06T00:25:03.961Z,56249.60
2019-01-06T00:28:12.786Z,56229.04
2019-01-06T00:31:21.330Z,56222.87
2019-01-06T00:34:30.037Z,56254.74
2019-01-06T00:37:38.568Z,56260.91
2019-01-06T00:40:36.055Z,56211.55
2019-01-06T00:43:44.126Z,56221.84
2019-01-06T00:46:52.145Z,56258.86
2019-01-06T00:50:00.796Z,56231.09
2019-01-06T00:53:08.847Z,56252.69
2019-01-06T00:56:16.873Z,56254.74
2019-01-06T00:59:25.168Z,56219.78
2019-01-06T01:02:33.215Z,56230.06
2019-01-06T01:05:27.835Z,56261.94
2019-01-06T01:08:25.611Z,56270.17
2019-01-06T01:11:34.288Z,56198.19
2019-01-06T01:14:42.313Z,56216.70
2019-01-06T01:17:50.584Z,56218.75
2019-01-06T01:20:58.632Z,56219.78
2019-01-06T01:24:06.924Z,56218.75
2019-01-06T01:27:15.443Z,56243.43
2019-01-06T01:30:24.148Z,56212.58
2019-01-06T01:33:32.424Z,56200.24
2019-01-06T01:36:40.482Z,56217.72
2019-01-06T01:39:48.540Z,56276.34
2019-01-06T01:42:57.211Z,56239.32
2019-01-06T01:46:05.513Z,56240.34
2019-01-06T01:49:13.827Z,56250.63
2019-01-06T01:52:21.855Z,56251.66
2019-01-06T01:55:30.372Z,56235.20
2019-01-06T01:58:38.927Z,56226.98
2019-01-06T02:01:47.212Z,56201.27
2019-01-06T02:04:55.263Z,56223.89
2019-01-06T02:07:56.461Z,56230.06
2019-01-06T02:14:56.914Z,56265.03
2019-01-06T02:17:59.095Z,56286.62
2019-01-06T02:21:07.167Z,56276.34
2019-01-06T02:24:15.202Z,56237.26
2019-01-06T02:27:23.473Z,56258.86
2019-01-06T02:30:31.489Z,56272.22
2019-01-06T02:33:39.789Z,56260.91
2019-01-06T02:36:47.871Z,56265.03
2019-01-06T02:39:56.129Z,56275.31
2019-01-06T02:43:04.488Z,56238.29
2019-01-06T02:46:05.113Z,56279.42
2019-01-06T02:52:29.359Z,56281.48
2019-01-06T02:55:37.522Z,56254.74
2019-01-06T02:58:38.315Z,56235.20
2019-01-06T03:01:46.341Z,56236.23
2019-01-06T03:04:54.946Z,56247.54
2019-01-06T03:07:55.963Z,56261.94
2019-01-06T03:11:04.263Z,56297.93
2019-01-06T03:14:12.324Z,56289.70
2019-01-06T03:17:20.408Z,56255.77
2019-01-06T03:20:28.541Z,56291.76
2019-01-06T03:23:36.359Z,56246.52
2019-01-06T03:26:44.969Z,56273.25
2019-01-06T03:29:53.014Z,56275.31
2019-01-06T03:33:01.274Z,56298.96
2019-01-06T03:36:09.332Z,56275.31
2019-01-06T03:39:17.378Z,56276.34
2019-01-06T03:42:25.945Z,56230.06
2019-01-06T03:45:33.967Z,56283.54
2019-01-06T03:48:42.226Z,56260.91
2019-01-06T03:51:50.549Z,56303.07
2019-01-06T03:54:59.107Z,56256.80
2019-01-06T03:58:03.579Z,56231.09
2019-01-06T04:01:04.609Z,56295.88
2019-01-06T04:04:12.894Z,56283.54
2019-01-06T04:07:20.923Z,56285.59
2019-01-06T04:10:21.721Z,56280.45
2019-01-06T04:13:29.807Z,56285.59
2019-01-06T04:16:31.902Z,56296.90
2019-01-06T04:19:40.239Z,56313.36
2019-01-06T04:22:48.822Z,56248.57
2019-01-06T04:25:54.579Z,56304.10
2019-01-06T04:29:02.868Z,56271.20
2019-01-06T04:32:11.382Z,56271.20
2019-01-06T04:35:19.665Z,56290.73
2019-01-06T04:38:27.719Z,56273.25
2019-01-06T04:41:35.799Z,56240.34
2019-01-06T04:44:44.133Z,56282.50
2019-01-06T04:47:52.205Z,56268.11
2019-01-06T04:51:00.239Z,56270.17
2019-01-06T04:54:08.413Z,56269.14
2019-01-06T04:57:16.429Z,56279.42
2019-01-06T05:00:24.778Z,56260.91
2019-01-06T05:03:52.407Z,56287.65
2019-01-06T05:06:53.459Z,56242.40
2019-01-06T05:10:01.540Z,56277.36
2019-01-06T05:13:10.063Z,56270.17
2019-01-06T05:16:18.140Z,56258.86
2019-01-06T05:19:26.220Z,56292.79
2019-01-06T05:22:34.256Z,56238.29
2019-01-06T05:25:42.312Z,56262.97
2019-01-06T05:28:50.371Z,56285.59
2019-01-06T05:31:58.679Z,56259.88
2019-01-06T05:35:06.756Z,56271.20
2019-01-06T05:38:14.808Z,56271.20
2019-01-06T05:41:22.879Z,56225.95
2019-01-06T05:44:30.915Z,56279.42
2019-01-06T05:47:38.963Z,56256.80
2019-01-06T05:50:47.044Z,56287.65
2019-01-06T05:53:55.334Z,56299.99
2019-01-06T05:57:03.405Z,56265.03
2019-01-06T06:00:11.472Z,56266.05
2019-01-06T06:03:19.530Z,56256.80
2019-01-06T06:06:12.030Z,56271.20
2019-01-06T06:09:20.079Z,56270.17
2019-01-06T06:12:28.152Z,56270.17
2019-01-06T06:15:36.502Z,56288.68
2019-01-06T06:18:44.579Z,56296.90
2019-01-06T06:21:52.644Z,56282.50
2019-01-06T06:25:00.789Z,56302.04
2019-01-06T06:28:08.828Z,56260.91
2019-01-06T06:31:16.866Z,56238.29
2019-01-06T06:34:20.725Z,56217.72
2019-01-06T06:37:28.806Z,56289.70
2019-01-06T06:40:36.848Z,56233.15
2019-01-06T06:43:44.887Z,56276.34
2019-01-06T06:46:53.166Z,56280.45
2019-01-06T06:50:01.250Z,56311.30
2019-01-06T06:53:09.391Z,56274.28
2019-01-06T06:56:17.466Z,56287.65
2019-01-06T06:59:25.507Z,56244.46
2019-01-06T07:03:12.064Z,56273.25
2019-01-06T07:06:11.501Z,56256.80
2019-01-06T07:09:28.851Z,56276.34
2019-01-06T07:12:28.307Z,56286.62
2019-01-06T07:15:23.300Z,56275.31
2019-01-06T07:18:21.617Z,56310.27
2019-01-06T07:21:08.589Z,56279.42
2019-01-06T07:23:56.639Z,56281.48
2019-01-06T07:27:04.462Z,56268.11
2019-01-06T07:29:53.825Z,56301.02
2019-01-06T07:32:51.111Z,56267.08
2019-01-06T07:35:33.891Z,56294.85
2019-01-06T07:38:21.129Z,56315.41
2019-01-06T07:41:10.493Z,56279.42
2019-01-06T07:43:54.297Z,56287.65
2019-01-06T07:46:42.273Z,56281.48
2019-01-06T07:49:20.445Z,56272.22
2019-01-06T07:52:16.587Z,56242.40
2019-01-06T07:54:55.696Z,56283.54
2019-01-06T07:57:42.899Z,56268.11
2019-01-06T08:00:27.367Z,56260.91
2019-01-06T08:03:15.127Z,56260.91
2019-01-06T08:06:02.752Z,56279.42
2019-01-06T08:08:55.681Z,56290.73
2019-01-06T08:11:53.656Z,56243.43
2019-01-06T08:14:45.937Z,56275.31
2019-01-06T08:17:41.533Z,56234.18
2019-01-06T08:20:39.415Z,56259.88
2019-01-06T08:23:32.354Z,56289.70
2019-01-06T08:26:19.856Z,56269.14
2019-01-06T08:29:13.079Z,56240.34
2019-01-06T08:31:56.768Z,56249.60
2019-01-06T08:34:42.426Z,56248.57
2019-01-06T08:37:30.093Z,56225.95
2019-01-06T08:40:17.954Z,56254.74
2019-01-06T08:43:07.616Z,56206.41
2019-01-06T08:45:59.016Z,56248.57
2019-01-06T08:48:50.105Z,56269.14
2019-01-06T08:51:46.105Z,56240.34
2019-01-06T08:54:27.260Z,56255.77
2019-01-06T08:57:15.120Z,56242.40
2019-01-06T09:00:07.246Z,56218.75
2019-01-06T09:02:55.792Z,56229.04
2019-01-06T09:05:45.457Z,56223.89
2019-01-06T09:08:42.320Z,56250.63
2019-01-06T09:11:40.992Z,56205.38
2019-01-06T09:14:22.002Z,56213.61
2019-01-06T09:17:09.960Z,56228.01
2019-01-06T09:19:57.801Z,56216.70
2019-01-06T09:22:46.629Z,56252.69
2019-01-06T09:25:40.959Z,56198.19
2019-01-06T09:28:27.514Z,56205.38
2019-01-06T09:31:18.698Z,56202.30
2019-01-06T09:34:26.763Z,56203.33
2019-01-06T09:37:35.454Z,56200.24
2019-01-06T09:40:47.686Z,56202.30
2019-01-06T09:43:35.854Z,56202.30
2019-01-06T09:46:24.978Z,56219.78
2019-01-06T09:49:13.375Z,56225.95
2019-01-06T09:52:18.025Z,56234.18
2019-01-06T09:55:05.754Z,56190.99
2019-01-06T09:58:00.831Z,56197.16
2019-01-06T10:00:50.036Z,56204.36
2019-01-06T10:03:37.394Z,56219.78
2019-01-06T10:06:36.530Z,56196.13
2019-01-06T10:09:41.017Z,56201.27
2019-01-06T10:12:35.927Z,56211.55
2019-01-06T10:15:18.890Z,56220.81
2019-01-06T10:18:06.520Z,56214.64
2019-01-06T10:21:04.339Z,56215.67
2019-01-06T10:23:58.012Z,56209.50
2019-01-06T10:27:07.494Z,56219.78
2019-01-06T10:29:57.906Z,56187.90
2019-01-06T10:32:46.193Z,56213.61
2019-01-06T10:35:34.019Z,56190.99
2019-01-06T10:38:26.061Z,56229.04
2019-01-06T10:41:19.019Z,56207.44
2019-01-06T10:44:06.107Z,56182.76
2019-01-06T10:46:51.529Z,56176.59
2019-01-06T10:49:58.607Z,56212.58
2019-01-06T10:52:46.034Z,56236.23
2019-01-06T10:55:39.026Z,56212.58
2019-01-06T10:58:36.168Z,56198.19
2019-01-06T11:01:40.819Z,56184.82
2019-01-06T11:04:29.819Z,56186.87
2019-01-06T11:07:17.555Z,56215.67
2019-01-06T11:10:06.426Z,56196.13
2019-01-06T11:12:54.430Z,56214.64
2019-01-06T11:15:42.349Z,56159.11
2019-01-06T11:18:31.012Z,56211.55
2019-01-06T11:21:18.923Z,56231.09
2019-01-06T11:24:09.827Z,56202.30
2019-01-06T11:26:59.198Z,56177.62
2019-01-06T11:29:51.899Z,56193.05
2019-01-06T11:32:44.281Z,56220.81
2019-01-06T11:35:29.744Z,56188.93
2019-01-06T11:38:18.572Z,56208.47
2019-01-06T11:41:19.853Z,56217.72
2019-01-06T11:44:27.115Z,56177.62
2019-01-06T11:47:17.454Z,56207.44
2019-01-06T11:50:07.538Z,56190.99
2019-01-06T11:53:04.564Z,56198.19
2019-01-06T11:55:53.673Z,56211.55
2019-01-06T11:58:41.888Z,56194.07
2019-01-06T12:01:40.094Z,56197.16
2019-01-06T12:04:32.404Z,56235.20
2019-01-06T12:07:21.297Z,56182.76
2019-01-06T12:10:17.428Z,56239.32
2019-01-06T12:13:06.822Z,56207.44
2019-01-06T12:15:55.460Z,56193.05
2019-01-06T12:18:44.071Z,56177.62
2019-01-06T12:21:42.005Z,56218.75
2019-01-06T12:24:30.892Z,56197.16
2019-01-06T12:27:28.679Z,56228.01
2019-01-06T12:30:33.391Z,56223.89
2019-01-06T12:33:31.393Z,56209.50
2019-01-06T12:36:31.025Z,56225.95
2019-01-06T12:39:32.769Z,56207.44
2019-01-06T12:42:33.772Z,56223.89
2019-01-06T12:45:35.046Z,56203.33
2019-01-06T12:48:22.834Z,56206.41
2019-01-06T12:51:10.661Z,56199.21
2019-01-06T12:53:58.520Z,56188.93
2019-01-06T12:56:50.701Z,56218.75
2019-01-06T12:59:38.857Z,56223.89
2019-01-06T13:02:26.285Z,56221.84
2019-01-06T13:05:28.589Z,56215.67
2019-01-06T13:08:39.474Z,56213.61
2019-01-06T13:11:37.747Z,56203.33
2019-01-06T13:14:33.555Z,56206.41
2019-01-06T13:17:19.585Z,56184.82
2019-01-06T13:20:07.635Z,56200.24
2019-01-06T13:22:55.490Z,56211.55
2019-01-06T13:25:53.656Z,56212.58
2019-01-06T13:28:41.148Z,56183.79
2019-01-06T13:31:39.404Z,56223.89
2019-01-06T13:34:22.817Z,56218.75
2019-01-06T13:37:14.508Z,56197.16
2019-01-06T13:40:06.151Z,56203.33
2019-01-06T13:42:48.473Z,56192.02
2019-01-06T13:45:44.958Z,56186.87
2019-01-06T13:48:39.596Z,56199.21
2019-01-06T13:51:27.351Z,56189.96
2019-01-06T13:54:33.079Z,56254.74
2019-01-06T13:57:25.453Z,56193.05
2019-01-06T14:00:12.991Z,56223.89
2019-01-06T14:03:00.931Z,56186.87
2019-01-06T14:05:59.173Z,56212.58
2019-01-06T14:08:44.781Z,56220.81
2019-01-06T14:11:30.926Z,56212.58
2019-01-06T14:14:14.845Z,56219.78
2019-01-06T14:17:04.173Z,56252.69
2019-01-06T14:19:56.078Z,56213.61
2019-01-06T14:22:58.143Z,56239.32
2019-01-06T14:25:46.033Z,56197.16
2019-01-06T14:28:33.853Z,56188.93
2019-01-06T14:31:22.466Z,56211.55
2019-01-06T14:34:13.268Z,56205.38
2019-01-06T14:37:04.690Z,56232.12
2019-01-06T14:40:02.903Z,56205.38
2019-01-06T14:42:50.910Z,56197.16
2019-01-06T14:45:42.653Z,56232.12
2019-01-06T14:48:31.762Z,56201.27
2019-01-06T14:51:23.522Z,56221.84
2019-01-06T14:54:10.987Z,56187.90
2019-01-06T14:57:09.070Z,56196.13
2019-01-06T14:59:58.858Z,56226.98
2019-01-06T15:02:58.863Z,56201.27
2019-01-06T15:05:49.563Z,56214.64
2019-01-06T15:08:32.256Z,56223.89
2019-01-06T15:11:28.476Z,56225.95
2019-01-06T15:14:16.453Z,56215.67
2019-01-06T15:17:16.223Z,56217.72
2019-01-06T15:20:12.464Z,56209.50
2019-01-06T15:23:00.350Z,56207.44
2019-01-06T15:25:49.112Z,56228.01
2019-01-06T15:28:40.150Z,56231.09
2019-01-06T15:31:27.567Z,56218.75
2019-01-06T15:34:15.071Z,56248.57
2019-01-06T15:37:07.037Z,56156.03
2019-01-06T15:39:48.385Z,56213.61
2019-01-06T15:42:37.622Z,56209.50
2019-01-06T15:45:29.520Z,56221.84
2019-01-06T15:48:32.106Z,56222.87
2019-01-06T15:51:32.457Z,56203.33
2019-01-06T15:58:21.177Z,56237.26
2019-01-06T16:01:08.985Z,56225.95
2019-01-06T16:03:56.809Z,56235.20
2019-01-06T16:06:44.461Z,56209.50
2019-01-06T16:09:34.918Z,56237.26
2019-01-06T16:12:22.050Z,56217.72
2019-01-06T16:15:10.333Z,56197.16
2019-01-06T16:17:58.130Z,56245.49
2019-01-06T16:20:50.175Z,56190.99
2019-01-06T16:23:49.053Z,56233.15
2019-01-06T16:26:41.211Z,56221.84
2019-01-06T16:29:28.780Z,56200.24
2019-01-06T16:32:16.601Z,56221.84
2019-01-06T16:35:14.698Z,56223.89
2019-01-06T16:38:02.816Z,56231.09
2019-01-06T16:40:47.851Z,56216.70
2019-01-06T16:43:35.634Z,56245.49
2019-01-06T16:46:25.069Z,56205.38
2019-01-06T16:49:10.448Z,56225.95
2019-01-06T16:51:58.386Z,56231.09
2019-01-06T16:55:02.836Z,56196.13
2019-01-06T16:57:58.033Z,56220.81
2019-01-06T17:00:45.726Z,56231.09
2019-01-06T17:03:37.213Z,56224.92
2019-01-06T17:06:25.291Z,56217.72
2019-01-06T17:09:13.140Z,56198.19
2019-01-06T17:12:00.782Z,56229.04
2019-01-06T17:14:42.629Z,56217.72
2019-01-06T17:17:30.764Z,56242.40
2019-01-06T17:20:19.976Z,56228.01
2019-01-06T17:23:21.337Z,56228.01
2019-01-06T17:26:22.632Z,56217.72
2019-01-06T17:29:10.236Z,56211.55
2019-01-06T17:31:56.145Z,56204.36
2019-01-06T17:34:44.123Z,56231.09
2019-01-06T17:37:41.923Z,56250.63
2019-01-06T17:40:29.784Z,56212.58
2019-01-06T17:43:24.966Z,56219.78
2019-01-06T17:46:12.477Z,56228.01
2019-01-06T17:49:10.733Z,56206.41
2019-01-06T17:51:58.482Z,56265.03
2019-01-06T17:54:41.841Z,56223.89
2019-01-06T17:57:36.853Z,56193.05
2019-01-06T18:00:28.171Z,56177.62
2019-01-06T18:03:22.894Z,56210.52
2019-01-06T18:06:06.893Z,56234.18
2019-01-06T18:08:54.659Z,56217.72
2019-01-06T18:11:43.876Z,56222.87
2019-01-06T18:14:41.707Z,56226.98
2019-01-06T18:17:24.727Z,56232.12
2019-01-06T18:20:21.880Z,56230.06
2019-01-06T18:23:24.412Z,56240.34
2019-01-06T18:26:17.281Z,56217.72
2019-01-06T18:28:59.725Z,56222.87
2019-01-06T18:31:47.311Z,56238.29
2019-01-06T18:34:35.098Z,56225.95
2019-01-06T18:37:39.147Z,56240.34
2019-01-06T18:40:31.034Z,56230.06
2019-01-06T18:43:18.554Z,56255.77
2019-01-06T18:46:26.225Z,56230.06
2019-01-06T18:49:19.261Z,56194.07
2019-01-06T18:52:17.713Z,56235.20
2019-01-06T18:55:05.190Z,56234.18
2019-01-06T18:57:53.513Z,56247.54
2019-01-06T19:00:36.872Z,56224.92
2019-01-06T19:03:18.968Z,56230.06
2019-01-06T19:06:14.153Z,56240.34
2019-01-06T19:09:01.660Z,56254.74
2019-01-06T19:11:49.203Z,56226.98
2019-01-06T19:14:36.786Z,56231.09
2019-01-06T19:17:40.707Z,56241.37
2019-01-06T19:20:29.443Z,56218.75
2019-01-06T19:23:33.735Z,56230.06
2019-01-06T19:26:28.911Z,56235.20
2019-01-06T19:29:16.921Z,56278.39
2019-01-06T19:32:05.118Z,56232.12
2019-01-06T19:35:03.156Z,56204.36
2019-01-06T19:37:46.959Z,56240.34
2019-01-06T19:40:34.432Z,56199.21
2019-01-06T19:43:22.903Z,56223.89
2019-01-06T19:46:11.719Z,56220.81
2019-01-06T19:48:56.129Z,56219.78
2019-01-06T19:51:52.780Z,56181.73
2019-01-06T19:54:33.584Z,56224.92
2019-01-06T19:57:27.360Z,56229.04
2019-01-06T20:00:15.172Z,56225.95
2019-01-06T20:03:13.135Z,56195.10
2019-01-06T20:06:12.592Z,56228.01
2019-01-06T20:09:00.129Z,56223.89
2019-01-06T20:12:02.269Z,56242.40
2019-01-06T20:14:51.001Z,56231.09
2019-01-06T20:17:52.279Z,56180.71
2019-01-06T20:20:50.459Z,56225.95
2019-01-06T20:23:40.188Z,56230.06
2019-01-06T20:26:28.107Z,56213.61
2019-01-06T20:29:15.934Z,56240.34
2019-01-06T20:31:59.222Z,56208.47
2019-01-06T20:34:51.398Z,56190.99
2019-01-06T20:37:39.257Z,56246.52
2019-01-06T20:40:24.611Z,56223.89
2019-01-06T20:43:12.843Z,56235.20
2019-01-06T20:46:00.359Z,56234.18
2019-01-06T20:48:52.617Z,56215.67
2019-01-06T20:51:41.438Z,56209.50
2019-01-06T20:54:26.132Z,56214.64
2019-01-06T20:57:20.509Z,56258.86
2019-01-06T21:00:25.100Z,56190.99
2019-01-06T21:03:27.384Z,56192.02
2019-01-06T21:06:28.686Z,56203.33
2019-01-06T21:09:16.499Z,56219.78
2019-01-06T21:12:12.950Z,56209.50
2019-01-06T21:15:00.688Z,56221.84
2019-01-06T21:18:01.955Z,56203.33
2019-01-06T21:21:00.457Z,56230.06
2019-01-06T21:23:47.616Z,56219.78
2019-01-06T21:26:35.795Z,56199.21
2019-01-06T21:29:33.563Z,56248.57
2019-01-06T21:32:24.848Z,56240.34
2019-01-06T21:35:15.644Z,56174.54
2019-01-06T21:38:03.130Z,56194.07
2019-01-06T21:40:50.910Z,56218.75
2019-01-06T21:43:35.741Z,56203.33
2019-01-06T21:46:21.942Z,56240.34
2019-01-06T21:49:09.508Z,56228.01
2019-01-06T21:52:10.513Z,56260.91
2019-01-06T21:54:58.367Z,56243.43
2019-01-06T21:57:47.955Z,56212.58
2019-01-06T22:00:30.580Z,56186.87
2019-01-06T22:03:30.574Z,56236.23
2019-01-06T22:06:22.115Z,56232.12
2019-01-06T22:09:29.428Z,56224.92
2019-01-06T22:12:21.898Z,56228.01
2019-01-06T22:15:10.008Z,56220.81
2019-01-06T22:18:09.669Z,56203.33
2019-01-06T22:21:09.081Z,56192.02
2019-01-06T22:24:02.722Z,56203.33
2019-01-06T22:26:49.664Z,56219.78
2019-01-06T22:29:34.456Z,56244.46
2019-01-06T22:32:35.530Z,56195.10
2019-01-06T22:35:23.492Z,56211.55
2019-01-06T22:38:18.438Z,56225.95
2019-01-06T22:41:09.976Z,56232.12
2019-01-06T22:44:16.715Z,56207.44
2019-01-06T22:47:04.001Z,56239.32
2019-01-06T22:49:52.158Z,56212.58
2019-01-06T22:52:37.950Z,56213.61
2019-01-06T22:55:28.251Z,56209.50
2019-01-06T22:58:15.937Z,56243.43
2019-01-06T23:01:04.648Z,56213.61
2019-01-06T23:03:46.748Z,56211.55
2019-01-06T23:06:47.095Z,56209.50
2019-01-06T23:09:36.161Z,56239.32
2019-01-06T23:12:25.032Z,56200.24
2019-01-06T23:15:14.196Z,56215.67
2019-01-06T23:18:01.956Z,56230.06
2019-01-06T23:20:49.810Z,56209.50
2019-01-06T23:23:37.467Z,56234.18
2019-01-06T23:26:25.363Z,56234.18
2019-01-06T23:29:21.536Z,56248.57
2019-01-06T23:32:14.827Z,56224.92
2019-01-06T23:35:05.895Z,56226.98
2019-01-06T23:37:53.407Z,56198.19
2019-01-06T23:40:41.614Z,56223.89
2019-01-06T23:43:31.736Z,56217.72
2019-01-06T23:46:32.110Z,56209.50
2019-01-06T23:49:22.970Z,56217.72
2019-01-06T23:52:14.648Z,56164.25
2019-01-06T23:55:12.749Z,56221.84
2019-01-06T23:58:10.616Z,56216.70
